Time;durP1;ratioP1;P1;durP2;ratioP2;P2;SDS_P1;SDS_P2;PMS_P1;PMS_P2;Temp;Humidity;BMP_temperature;BMP_pressure;BME280_temperature;BME280_humidity;BME280_pressure;Samples;Min_cycle;Max_cycle;Signal;HPM_P1;HPM_P2
2023/03/21 00:00:47;;;;;;;28.17;14.90;;;10.60;80.10;;;;;;9176391;19;20028;-63
2023/03/21 00:03:53;;;;;;;35.88;17.02;;;10.60;80.70;;;;;;9175763;19;20364;-63
2023/03/21 00:06:59;;;;;;;;;;;10.70;80.20;;;;;;9175392;19;20417;-63
2023/03/21 00:10:06;;;;;;;35.60;15.35;;;10.70;80.10;;;;;;9172488;19;19921;-62
2023/03/21 00:13:21;;;;;;;34.88;16.17;;;10.70;80.00;;;;;;9175082;19;20027;-63
2023/03/21 00:16:29;;;;;;;33.15;14.30;;;10.70;80.10;;;;;;9175468;19;20018;-63
2023/03/21 00:19:45;;;;;;;37.33;15.43;;;10.60;80.10;;;;;;9175091;19;20015;-62
2023/03/21 00:22:52;;;;;;;34.40;16.20;;;10.60;80.10;;;;;;9175742;19;20018;-64
2023/03/21 00:25:57;;;;;;;38.05;15.43;;;10.60;80.20;;;;;;9174295;19;20086;-63
2023/03/21 00:29:03;;;;;;;37.75;16.30;;;10.70;80.40;;;;;;9173864;19;20011;-63
2023/03/21 00:32:07;;;;;;;35.08;15.50;;;10.70;80.40;;;;;;9180179;19;20363;-64
2023/03/21 00:35:13;;;;;;;30.90;15.25;;;10.60;80.30;;;;;;9179376;19;20014;-63
2023/03/21 00:38:39;;;;;;;35.78;15.55;;;10.70;80.30;;;;;;9180520;19;20146;-63
2023/03/21 00:41:46;;;;;;;41.08;15.48;;;10.70;80.40;;;;;;9181439;19;20015;-63
2023/03/21 00:44:49;;;;;;;34.50;15.07;;;10.70;80.40;;;;;;9180202;19;20014;-64
2023/03/21 00:47:56;;;;;;;40.88;14.95;;;10.70;80.40;;;;;;9176827;19;20029;-63
2023/03/21 00:51:00;;;;;;;33.10;14.15;;;10.70;80.50;;;;;;9178462;19;20078;-63
2023/03/21 00:54:08;;;;;;;32.10;15.32;;;10.70;80.60;;;;;;9178287;19;20022;-63
2023/03/21 00:57:12;;;;;;;42.92;15.05;;;10.70;80.50;;;;;;9175141;19;20486;-63
2023/03/21 01:00:19;;;;;;;42.67;17.30;;;10.70;80.50;;;;;;9179106;19;20050;-62
2023/03/21 01:03:25;;;;;;;32.15;14.98;;;10.70;80.60;;;;;;9176501;19;20022;-62
2023/03/21 01:06:31;;;;;;;36.28;14.30;;;10.70;80.60;;;;;;9178570;19;20356;-62
2023/03/21 01:09:39;;;;;;;33.25;14.70;;;10.60;80.60;;;;;;9176550;19;20018;-62
2023/03/21 01:12:45;;;;;;;39.63;17.17;;;10.70;80.60;;;;;;9179526;19;20015;-63
2023/03/21 01:15:51;;;;;;;34.47;15.40;;;10.70;80.70;;;;;;9179402;19;20503;-64
2023/03/21 01:18:58;;;;;;;25.27;13.43;;;10.70;80.70;;;;;;9177248;19;20017;-63
2023/03/21 01:22:02;;;;;;;28.90;13.85;;;10.70;80.70;;;;;;9179104;19;20074;-63
2023/03/21 01:25:11;;;;;;;33.05;14.18;;;10.70;80.80;;;;;;9177209;19;20349;-63
2023/03/21 01:28:27;;;;;;;34.72;15.45;;;10.70;80.80;;;;;;9176497;19;20035;-63
2023/03/21 01:31:33;;;;;;;32.53;14.63;;;10.70;80.80;;;;;;9178545;19;20017;-63
2023/03/21 01:34:38;;;;;;;38.92;15.98;;;10.70;80.80;;;;;;9178431;19;20018;-63
2023/03/21 01:37:44;;;;;;;32.25;15.30;;;10.70;80.80;;;;;;9177056;19;20364;-62
2023/03/21 01:40:51;;;;;;;35.63;15.50;;;10.70;80.90;;;;;;9176760;19;20077;-63
2023/03/21 01:44:03;;;;;;;33.33;14.68;;;10.70;80.90;;;;;;9176511;19;20376;-63
2023/03/21 01:47:11;;;;;;;31.35;14.23;;;10.70;81.00;;;;;;9174574;19;20676;-63
2023/03/21 01:50:25;;;;;;;40.17;14.98;;;10.70;80.90;;;;;;9176652;19;20007;-62
2023/03/21 01:53:59;;;;;;;34.65;14.98;;;10.70;80.90;;;;;;9176963;19;20011;-63
2023/03/21 01:57:16;;;;;;;37.55;13.75;;;10.70;80.90;;;;;;9171023;19;20023;-63
2023/03/21 02:00:28;;;;;;;34.20;15.25;;;10.70;80.90;;;;;;9175367;19;20023;-62
2023/03/21 02:03:51;;;;;;;37.58;14.73;;;10.70;80.90;;;;;;9175687;19;20050;-62
2023/03/21 02:07:27;;;;;;;35.92;15.23;;;10.70;80.90;;;;;;9174909;19;20011;-62
2023/03/21 02:10:40;;;;;;;35.88;14.80;;;10.70;80.90;;;;;;9172712;19;20010;-62
2023/03/21 02:13:48;;;;;;;28.88;15.77;;;10.70;80.90;;;;;;9175496;19;20102;-62
2023/03/21 02:17:09;;;;;;;39.95;16.17;;;10.70;81.00;;;;;;9175760;19;20014;-63
2023/03/21 02:20:41;;;;;;;32.67;15.63;;;10.70;81.00;;;;;;9174508;19;20021;-62
2023/03/21 02:24:20;;;;;;;29.80;16.52;;;10.70;81.20;;;;;;9175719;19;20010;-63
2023/03/21 02:27:25;;;;;;;41.00;16.35;;;10.70;81.10;;;;;;9174179;19;20014;-62
2023/03/21 02:31:10;;;;;;;34.78;15.38;;;10.70;81.00;;;;;;9174746;19;20019;-62
2023/03/21 02:34:55;;;;;;;31.20;15.50;;;10.70;81.20;;;;;;9176324;19;20039;-63
2023/03/21 02:38:09;;;;;;;33.50;16.63;;;10.70;81.20;;;;;;9173846;19;20022;-63
2023/03/21 02:41:19;;;;;;;32.28;16.10;;;10.70;81.10;;;;;;9174886;19;20010;-62
2023/03/21 02:44:35;;;;;;;30.97;15.33;;;10.70;81.20;;;;;;9174721;19;20017;-62
2023/03/21 02:47:44;;;;;;;38.50;18.45;;;10.70;81.20;;;;;;9173062;19;20523;-63
2023/03/21 02:50:54;;;;;;;39.17;16.13;;;10.70;81.20;;;;;;9176437;19;20354;-62
2023/03/21 02:54:04;;;;;;;36.40;16.73;;;10.70;81.20;;;;;;9174265;19;20010;-63
2023/03/21 02:57:30;;;;;;;25.73;14.88;;;10.70;81.30;;;;;;9168462;19;20011;-63
2023/03/21 03:00:48;;;;;;;32.08;16.00;;;10.80;81.30;;;;;;9174049;19;20010;-63
2023/03/21 03:04:06;;;;;;;27.48;15.35;;;10.80;81.30;;;;;;9173974;19;20022;-62
2023/03/21 03:07:20;;;;;;;29.60;14.95;;;10.80;81.30;;;;;;9170909;19;20347;-63
2023/03/21 03:10:39;;;;;;;29.42;15.40;;;10.80;81.40;;;;;;9172814;19;20498;-62
2023/03/21 03:14:05;;;;;;;36.78;14.82;;;10.80;81.40;;;;;;9171743;19;20018;-62
2023/03/21 03:17:50;;;;;;;33.30;14.43;;;10.80;81.50;;;;;;9173161;19;20019;-63
2023/03/21 03:21:01;;;;;;;33.63;15.73;;;10.80;81.60;;;;;;9175399;19;20022;-62
2023/03/21 03:24:12;;;;;;;34.92;15.02;;;10.80;81.40;;;;;;9172882;19;20022;-62
2023/03/21 03:27:24;;;;;;;28.58;14.40;;;10.80;81.50;;;;;;9180393;19;20077;-62
2023/03/21 03:30:31;;;;;;;27.75;13.35;;;10.80;81.50;;;;;;9182709;19;20015;-64
2023/03/21 03:33:50;;;;;;;27.15;13.65;;;10.80;81.50;;;;;;9180690;19;20014;-64
2023/03/21 03:36:59;;;;;;;29.85;14.43;;;10.80;81.50;;;;;;9180757;19;20014;-64
2023/03/21 03:40:08;;;;;;;30.55;13.07;;;10.80;81.60;;;;;;9181634;19;20031;-64
2023/03/21 03:43:24;;;;;;;23.33;12.50;;;10.80;81.60;;;;;;9180572;19;20015;-64
2023/03/21 03:46:32;;;;;;;26.55;13.52;;;10.80;81.60;;;;;;9180484;19;20042;-64
2023/03/21 03:49:48;;;;;;;26.85;14.27;;;10.80;81.60;;;;;;9177377;19;20018;-64
2023/03/21 03:52:56;;;;;;;24.27;13.07;;;10.80;81.60;;;;;;9180318;19;20096;-64
2023/03/21 03:56:11;;;;;;;27.73;13.65;;;10.80;81.60;;;;;;9180867;19;20019;-64
2023/03/21 03:59:20;;;;;;;28.58;14.13;;;10.80;81.60;;;;;;9175425;19;20035;-64
2023/03/21 04:02:58;;;;;;;25.02;13.27;;;10.80;81.60;;;;;;9177988;19;20015;-64
2023/03/21 04:06:05;;;;;;;22.25;12.57;;;10.80;81.60;;;;;;9179646;19;20046;-64
2023/03/21 04:09:11;;;;;;;24.83;13.35;;;10.80;81.60;;;;;;9177275;19;20114;-64
2023/03/21 04:12:26;;;;;;;22.55;13.30;;;10.80;81.60;;;;;;9179988;19;20039;-63
2023/03/21 04:15:52;;;;;;;23.65;13.30;;;10.80;81.60;;;;;;9180444;19;20007;-64
2023/03/21 04:18:56;;;;;;;29.83;12.95;;;10.80;81.70;;;;;;9179722;19;20019;-64
2023/03/21 04:22:02;;;;;;;22.13;13.07;;;10.80;81.70;;;;;;9180928;19;20018;-65
2023/03/21 04:25:12;;;;;;;26.15;13.95;;;10.80;81.70;;;;;;9178884;19;20041;-65
2023/03/21 04:28:21;;;;;;;26.50;13.88;;;10.80;81.80;;;;;;9177889;19;20018;-65
2023/03/21 04:31:36;;;;;;;24.63;13.70;;;10.80;81.80;;;;;;9179239;19;20015;-65
2023/03/21 04:34:52;;;;;;;25.08;12.43;;;10.80;81.80;;;;;;9178204;19;20010;-65
2023/03/21 04:37:58;;;;;;;28.20;12.25;;;10.80;81.80;;;;;;9178310;19;20010;-65
2023/03/21 04:41:04;;;;;;;23.35;13.10;;;10.80;81.80;;;;;;9179520;19;20014;-65
2023/03/21 04:44:10;;;;;;;23.00;12.30;;;10.80;81.80;;;;;;9179437;19;20011;-65
2023/03/21 04:47:19;;;;;;;28.23;14.30;;;10.80;81.90;;;;;;9178118;19;20010;-65
2023/03/21 04:50:24;;;;;;;29.23;13.65;;;10.80;81.90;;;;;;9178992;19;20022;-64
2023/03/21 04:53:30;;;;;;;28.70;14.52;;;10.80;81.90;;;;;;9180471;19;20015;-65
2023/03/21 04:56:35;;;;;;;28.90;14.73;;;10.80;81.90;;;;;;9178143;19;20015;-65
2023/03/21 04:59:42;;;;;;;25.67;14.00;;;10.80;81.90;;;;;;9170437;19;20014;-64
2023/03/21 05:02:48;;;;;;;31.98;15.23;;;10.80;82.00;;;;;;9180076;19;20352;-65
2023/03/21 05:05:54;;;;;;;25.10;15.20;;;10.80;82.00;;;;;;9179196;19;20015;-65
2023/03/21 05:09:02;;;;;;;34.67;15.25;;;10.80;82.00;;;;;;9176796;19;20022;-65
2023/03/21 05:12:11;;;;;;;29.88;14.77;;;10.80;82.00;;;;;;9178213;19;20014;-65
2023/03/21 05:15:15;;;;;;;;;;;10.80;82.00;;;;;;9180024;19;20010;-65
2023/03/21 05:18:24;;;;;;;28.58;14.65;;;10.80;82.00;;;;;;9177295;19;19942;-65
2023/03/21 05:21:42;;;;;;;26.70;12.90;;;10.80;81.90;;;;;;9177245;19;20051;-65
2023/03/21 05:24:54;;;;;;;32.47;15.27;;;10.80;82.00;;;;;;9177969;19;20511;-65
2023/03/21 05:28:21;;;;;;;31.17;14.38;;;10.80;82.00;;;;;;9175551;19;20070;-64
2023/03/21 05:31:28;;;;;;;27.83;13.57;;;10.80;82.00;;;;;;9177328;19;20019;-64
2023/03/21 05:34:44;;;;;;;;;;;10.80;82.10;;;;;;9178111;19;20508;-64
2023/03/21 05:37:50;;;;;;;26.35;13.27;;;10.80;82.10;;;;;;9176706;19;19929;-64
2023/03/21 05:40:56;;;;;;;25.65;13.27;;;10.80;82.00;;;;;;9176393;19;20104;-64
2023/03/21 05:44:03;;;;;;;29.88;14.90;;;10.80;82.10;;;;;;9177005;19;20018;-65
2023/03/21 05:47:07;;;;;;;30.13;13.68;;;10.70;82.10;;;;;;9174721;19;20589;-64
2023/03/21 05:50:25;;;;;;;32.65;14.88;;;10.80;82.20;;;;;;9177005;19;20025;-65
2023/03/21 05:53:45;;;;;;;25.55;12.07;;;10.70;82.30;;;;;;9176382;19;20082;-65
2023/03/21 05:56:53;;;;;;;23.27;12.35;;;10.70;82.20;;;;;;9171540;19;20018;-65
2023/03/21 06:00:20;;;;;;;24.00;11.45;;;10.70;82.30;;;;;;9177632;19;20014;-65
2023/03/21 06:03:46;;;;;;;21.95;11.07;;;10.80;82.30;;;;;;9177651;19;20371;-65
2023/03/21 06:06:59;;;;;;;20.55;10.88;;;10.80;82.40;;;;;;9177752;19;20024;-65
2023/03/21 06:10:06;;;;;;;24.35;12.80;;;10.80;82.30;;;;;;9172724;19;20011;-64
2023/03/21 06:13:11;;;;;;;26.23;11.25;;;10.80;82.40;;;;;;9176272;19;20021;-65
2023/03/21 06:16:18;;;;;;;27.17;10.30;;;10.80;82.40;;;;;;9178759;19;20030;-64
2023/03/21 06:19:22;;;;;;;25.73;10.52;;;10.70;82.40;;;;;;9177101;19;20037;-65
2023/03/21 06:22:47;;;;;;;29.23;11.10;;;10.70;82.40;;;;;;9176670;19;20011;-65
2023/03/21 06:25:50;;;;;;;24.98;10.18;;;10.70;82.30;;;;;;9177991;19;20336;-65
2023/03/21 06:28:57;;;;;;;31.60;9.80;;;10.70;82.40;;;;;;9170724;19;20022;-66
2023/03/21 06:32:01;;;;;;;20.20;9.85;;;10.70;82.40;;;;;;9174616;19;20122;-65
2023/03/21 06:35:08;;;;;;;20.38;10.82;;;10.70;82.40;;;;;;9174807;19;20026;-66
2023/03/21 06:38:16;;;;;;;21.85;9.02;;;10.70;82.50;;;;;;9174867;19;20103;-66
2023/03/21 06:41:22;;;;;;;17.80;9.32;;;10.70;82.50;;;;;;9175848;19;20011;-65
2023/03/21 06:44:34;;;;;;;20.75;8.85;;;10.70;82.50;;;;;;9174435;19;20047;-66
2023/03/21 06:47:45;;;;;;;24.75;9.60;;;10.70;82.50;;;;;;9173726;19;20010;-66
2023/03/21 06:51:01;;;;;;;27.13;10.73;;;10.70;82.50;;;;;;9172412;19;20105;-66
2023/03/21 06:54:12;;;;;;;21.08;9.18;;;10.70;82.60;;;;;;9172908;19;20010;-66
2023/03/21 06:57:28;;;;;;;30.73;9.88;;;10.70;82.60;;;;;;9169525;19;20948;-66
2023/03/21 07:00:34;;;;;;;28.63;10.15;;;10.70;82.70;;;;;;9177394;19;20010;-66
2023/03/21 07:03:39;;;;;;;21.35;9.30;;;10.70;82.70;;;;;;9179329;19;20010;-65
2023/03/21 07:06:45;;;;;;;26.90;10.05;;;10.70;82.70;;;;;;9180466;19;20021;-65
2023/03/21 07:09:51;;;;;;;22.50;9.65;;;10.70;82.70;;;;;;9178590;19;20621;-65
2023/03/21 07:12:59;;;;;;;23.85;9.25;;;10.70;82.70;;;;;;9182863;19;20023;-65
2023/03/21 07:16:12;;;;;;;34.08;9.43;;;10.70;82.80;;;;;;9180971;19;20014;-65
2023/03/21 07:19:18;;;;;;;23.95;9.43;;;10.70;82.70;;;;;;9182547;19;20011;-65
2023/03/21 07:22:22;;;;;;;;;;;10.80;82.80;;;;;;9178095;19;20028;-66
2023/03/21 07:25:30;;;;;;;22.98;9.10;;;10.80;82.80;;;;;;9168281;19;20254;-65
2023/03/21 07:28:34;;;;;;;23.13;8.38;;;10.80;82.60;;;;;;9174619;19;20378;-65
2023/03/21 07:31:41;;;;;;;19.63;8.63;;;10.80;82.70;;;;;;9176060;19;20025;-65
2023/03/21 07:34:45;;;;;;;25.80;10.25;;;10.80;82.70;;;;;;9182391;19;20025;-65
2023/03/21 07:37:52;;;;;;;21.33;8.10;;;10.80;82.70;;;;;;9175792;19;20015;-65
2023/03/21 07:40:59;;;;;;;;;;;10.80;82.80;;;;;;9179457;19;20014;-65
2023/03/21 07:44:08;;;;;;;19.05;7.55;;;10.80;82.70;;;;;;9177268;19;19937;-65
2023/03/21 07:47:12;;;;;;;26.30;8.35;;;10.80;82.60;;;;;;9170027;19;20021;-65
2023/03/21 07:50:19;;;;;;;20.35;8.52;;;10.80;82.70;;;;;;9169946;19;20018;-65
2023/03/21 07:53:23;;;;;;;20.38;9.18;;;10.80;82.70;;;;;;9179235;19;20014;-65
2023/03/21 07:56:31;;;;;;;17.67;8.00;;;10.80;82.80;;;;;;9182517;19;20025;-65
2023/03/21 07:59:35;;;;;;;17.60;8.75;;;10.80;82.80;;;;;;9175929;19;20023;-65
2023/03/21 08:02:41;;;;;;;20.63;8.65;;;10.80;82.90;;;;;;9180303;19;20019;-65
2023/03/21 08:05:45;;;;;;;;;;;10.90;83.00;;;;;;9171284;19;20337;-65
2023/03/21 08:08:51;;;;;;;24.35;9.45;;;10.90;82.90;;;;;;9167770;19;19915;-65
2023/03/21 08:11:57;;;;;;;23.92;8.68;;;10.90;82.80;;;;;;9176369;19;20018;-65
2023/03/21 08:15:03;;;;;;;25.02;10.02;;;10.90;82.90;;;;;;9175238;19;20014;-65
2023/03/21 08:18:07;;;;;;;19.40;9.60;;;10.90;82.90;;;;;;9180577;19;20051;-64
2023/03/21 08:21:13;;;;;;;29.92;10.35;;;10.90;82.90;;;;;;9178649;19;20006;-64
2023/03/21 08:24:17;;;;;;;25.17;9.23;;;10.90;83.00;;;;;;9176372;19;20319;-64
2023/03/21 08:27:25;;;;;;;19.95;9.50;;;11.00;83.10;;;;;;9180631;19;20475;-64
2023/03/21 08:30:30;;;;;;;32.58;10.13;;;11.00;83.10;;;;;;9178840;19;20048;-64
2023/03/21 08:33:36;;;;;;;20.95;9.68;;;11.00;83.10;;;;;;9180234;19;20018;-65
2023/03/21 08:36:40;;;;;;;;;;;11.10;83.10;;;;;;9181037;19;20356;-65
2023/03/21 08:39:46;;;;;;;17.85;8.88;;;11.10;83.10;;;;;;9179568;19;19911;-64
2023/03/21 08:42:52;;;;;;;;;;;11.10;82.90;;;;;;9179261;19;20039;-64
2023/03/21 08:45:58;;;;;;;33.67;9.98;;;11.10;83.00;;;;;;9179249;19;19918;-64
2023/03/21 08:49:02;;;;;;;;;;;11.20;83.00;;;;;;9178392;19;20011;-65
2023/03/21 08:52:08;;;;;;;22.48;9.10;;;11.20;83.00;;;;;;9179408;19;19929;-64
2023/03/21 08:55:13;;;;;;;25.67;8.20;;;11.20;82.90;;;;;;9179992;19;20037;-64
2023/03/21 08:58:21;;;;;;;29.02;9.10;;;11.30;83.10;;;;;;9173364;19;20018;-64
2023/03/21 09:01:25;;;;;;;18.95;9.10;;;11.30;83.10;;;;;;9178532;19;20010;-64
2023/03/21 09:04:32;;;;;;;23.85;9.82;;;11.30;83.20;;;;;;9175103;19;20010;-65
2023/03/21 09:07:37;;;;;;;27.83;9.70;;;11.30;83.20;;;;;;9166460;19;20045;-65
2023/03/21 09:10:43;;;;;;;20.55;9.18;;;11.40;83.30;;;;;;9172285;19;20025;-65
2023/03/21 09:13:48;;;;;;;28.55;8.40;;;11.50;83.30;;;;;;9172459;19;20290;-65
2023/03/21 09:16:55;;;;;;;22.73;9.30;;;11.50;83.30;;;;;;9172192;19;20025;-65
2023/03/21 09:19:59;;;;;;;18.67;8.73;;;11.50;83.30;;;;;;9170661;19;20538;-65
2023/03/21 09:23:05;;;;;;;23.40;7.85;;;11.60;83.30;;;;;;9169956;19;20447;-65
2023/03/21 09:26:10;;;;;;;23.65;8.35;;;11.60;83.30;;;;;;9170668;19;20019;-65
2023/03/21 09:29:20;;;;;;;18.77;8.10;;;11.60;83.20;;;;;;9166948;19;20014;-61
2023/03/21 09:32:24;;;;;;;28.20;8.63;;;11.70;83.30;;;;;;9172868;19;20022;-62
2023/03/21 09:35:31;;;;;;;21.25;8.65;;;11.70;83.20;;;;;;9177903;19;20029;-61
2023/03/21 09:38:36;;;;;;;19.83;8.15;;;11.70;83.20;;;;;;9178729;19;20019;-62
2023/03/21 09:42:04;;;;;;;23.92;9.18;;;11.80;83.30;;;;;;9174199;19;20006;-62
2023/03/21 09:45:17;;;;;;;17.33;7.97;;;11.80;83.30;;;;;;9178339;19;20047;-61
2023/03/21 09:48:40;;;;;;;16.35;7.68;;;11.80;83.20;;;;;;9176428;19;20014;-62
2023/03/21 09:52:02;;;;;;;23.23;8.18;;;11.80;83.20;;;;;;9177773;19;20014;-61
2023/03/21 09:55:18;;;;;;;21.23;7.13;;;11.90;83.20;;;;;;9172907;19;20017;-61
2023/03/21 09:58:29;;;;;;;16.45;6.65;;;11.90;83.30;;;;;;9175846;19;20053;-61
2023/03/21 10:01:40;;;;;;;19.48;6.68;;;11.90;83.20;;;;;;9175246;19;20010;-62
2023/03/21 10:04:45;;;;;;;16.60;6.72;;;11.90;83.20;;;;;;9176410;19;20037;-62
2023/03/21 10:07:56;;;;;;;21.20;7.13;;;11.90;83.10;;;;;;9177454;19;20360;-62
2023/03/21 10:11:07;;;;;;;15.05;6.53;;;11.90;83.10;;;;;;9175346;19;20021;-62
2023/03/21 10:14:20;;;;;;;15.35;6.95;;;11.90;83.10;;;;;;9176656;19;20011;-62
2023/03/21 10:17:32;;;;;;;16.55;7.18;;;11.90;83.10;;;;;;9176941;19;20015;-62
2023/03/21 10:20:39;;;;;;;22.25;7.93;;;11.90;83.10;;;;;;9177974;19;20018;-62
2023/03/21 10:23:43;;;;;;;19.30;6.82;;;11.90;83.10;;;;;;9175028;19;20022;-62
2023/03/21 10:26:51;;;;;;;15.88;5.82;;;12.00;83.20;;;;;;9166306;19;20379;-61
2023/03/21 10:29:56;;;;;;;16.80;6.32;;;12.00;83.20;;;;;;9165940;19;20033;-61
2023/03/21 10:33:08;;;;;;;16.17;6.40;;;11.90;83.10;;;;;;9166352;19;20341;-62
2023/03/21 10:36:16;;;;;;;25.17;8.48;;;12.00;83.20;;;;;;9175644;19;20049;-62
2023/03/21 10:39:28;;;;;;;13.48;6.20;;;12.00;83.20;;;;;;9176938;19;20019;-62
2023/03/21 10:42:35;;;;;;;14.98;6.40;;;12.00;83.20;;;;;;9178014;19;20613;-61
2023/03/21 10:45:41;;;;;;;10.82;5.68;;;12.10;83.20;;;;;;9176274;19;20010;-62
2023/03/21 10:48:53;;;;;;;13.23;5.72;;;12.10;83.20;;;;;;9171835;19;20475;-61
2023/03/21 10:52:05;;;;;;;18.25;7.10;;;12.10;83.30;;;;;;9172642;19;20102;-61
2023/03/21 10:55:21;;;;;;;19.17;6.72;;;12.10;83.30;;;;;;9174471;19;20026;-62
2023/03/21 10:58:32;;;;;;;20.88;7.20;;;12.10;83.30;;;;;;9174851;19;20019;-61
2023/03/21 11:01:39;;;;;;;11.38;5.53;;;12.10;83.20;;;;;;9170563;19;20011;-61
2023/03/21 11:04:49;;;;;;;16.08;6.28;;;12.20;83.30;;;;;;9173138;19;20007;-62
2023/03/21 11:08:01;;;;;;;14.82;6.35;;;12.20;83.30;;;;;;9174435;19;20013;-61
2023/03/21 11:11:11;;;;;;;17.13;6.63;;;12.20;83.30;;;;;;9175479;19;20049;-62
2023/03/21 11:14:28;;;;;;;21.50;9.50;;;12.20;83.30;;;;;;9172410;19;20019;-60
2023/03/21 11:17:36;;;;;;;10.95;5.88;;;12.30;83.40;;;;;;9169813;19;20033;-62
2023/03/21 11:20:49;;;;;;;21.15;6.20;;;12.30;83.30;;;;;;9177067;19;20021;-62
2023/03/21 11:23:57;;;;;;;10.68;5.80;;;12.30;83.30;;;;;;9172296;19;20035;-62
2023/03/21 11:27:01;;;;;;;18.95;6.90;;;12.30;83.20;;;;;;9169204;19;20019;-63
2023/03/21 11:30:22;;;;;;;15.98;5.57;;;12.40;83.30;;;;;;9171181;19;20014;-62
2023/03/21 11:33:29;;;;;;;16.67;6.05;;;12.40;83.30;;;;;;9171442;19;20023;-62
2023/03/21 11:36:39;;;;;;;13.48;6.82;;;12.40;83.20;;;;;;9171379;19;20077;-65
2023/03/21 11:39:46;;;;;;;14.00;6.25;;;12.40;83.20;;;;;;9173338;19;20025;-65
2023/03/21 11:42:54;;;;;;;22.65;6.18;;;12.40;83.20;;;;;;9164501;19;20094;-65
2023/03/21 11:45:59;;;;;;;12.23;5.95;;;12.40;83.20;;;;;;9163558;19;20376;-65
2023/03/21 11:49:06;;;;;;;14.50;5.95;;;12.40;83.20;;;;;;9163985;19;20035;-65
2023/03/21 11:52:22;;;;;;;17.90;6.15;;;12.50;83.30;;;;;;9163491;19;20082;-65
2023/03/21 11:55:45;;;;;;;11.60;5.70;;;12.50;83.30;;;;;;9159307;19;20464;-65
2023/03/21 11:59:21;;;;;;;26.73;6.40;;;12.50;83.30;;;;;;9162560;19;20075;-65
2023/03/21 12:02:58;;;;;;;19.45;6.95;;;12.50;83.30;;;;;;9168837;19;20014;-65
2023/03/21 12:06:06;;;;;;;16.42;6.32;;;12.60;83.30;;;;;;9169160;19;20014;-65
2023/03/21 12:09:38;;;;;;;15.02;5.70;;;12.60;83.20;;;;;;9167281;19;20046;-65
2023/03/21 12:12:50;;;;;;;18.35;6.18;;;12.70;83.20;;;;;;9169516;19;20018;-66
2023/03/21 12:16:08;;;;;;;16.27;5.93;;;12.70;83.20;;;;;;9169671;19;20026;-65
2023/03/21 12:19:45;;;;;;;17.90;6.63;;;12.70;83.10;;;;;;9168324;19;20500;-65
2023/03/21 12:23:04;;;;;;;11.60;5.88;;;12.80;83.20;;;;;;9170666;19;20018;-65
2023/03/21 12:26:22;;;;;;;15.30;5.93;;;12.90;83.10;;;;;;9172992;19;20928;-65
2023/03/21 12:29:44;;;;;;;17.55;6.53;;;12.90;83.10;;;;;;9166941;19;20498;-65
2023/03/21 12:33:03;;;;;;;18.73;5.70;;;13.00;83.10;;;;;;9171466;19;20011;-65
2023/03/21 12:36:23;;;;;;;15.48;5.80;;;13.00;83.00;;;;;;9168662;19;20027;-65
2023/03/21 12:39:31;;;;;;;16.85;5.43;;;13.00;82.90;;;;;;9167479;19;20511;-65
2023/03/21 12:43:08;;;;;;;16.95;6.53;;;13.10;82.80;;;;;;9169989;19;20029;-65
2023/03/21 12:46:18;;;;;;;10.30;4.93;;;13.10;82.80;;;;;;9168341;19;20471;-66
2023/03/21 12:49:31;;;;;;;11.02;4.90;;;13.20;82.70;;;;;;9168969;19;20018;-65
2023/03/21 12:52:40;;;;;;;12.00;4.90;;;13.20;82.70;;;;;;9166259;19;20023;-65
2023/03/21 12:55:46;;;;;;;20.30;5.15;;;13.30;82.70;;;;;;9161915;19;20352;-65
2023/03/21 12:58:57;;;;;;;13.60;4.65;;;13.30;82.70;;;;;;9170179;19;20026;-66
2023/03/21 13:02:18;;;;;;;14.20;5.07;;;13.40;82.60;;;;;;9168130;19;20025;-65
2023/03/21 13:05:28;;;;;;;9.38;4.15;;;13.40;82.60;;;;;;9165944;19;20090;-65
2023/03/21 13:08:40;;;;;;;10.23;4.10;;;13.40;83.00;;;;;;9167975;19;20010;-65
2023/03/21 13:11:48;;;;;;;9.70;3.95;;;13.50;82.40;;;;;;9166235;19;20393;-65
2023/03/21 13:15:06;;;;;;;11.02;4.88;;;13.50;82.30;;;;;;9168243;19;20010;-65
2023/03/21 13:18:37;;;;;;;8.65;4.22;;;13.50;82.10;;;;;;9169364;19;20050;-65
2023/03/21 13:21:51;;;;;;;11.98;4.25;;;13.50;82.10;;;;;;9172486;19;20018;-65
2023/03/21 13:25:00;;;;;;;10.43;4.07;;;13.50;82.10;;;;;;9178676;19;20010;-65
2023/03/21 13:28:07;;;;;;;10.13;4.07;;;13.60;82.00;;;;;;9173171;19;20360;-65
2023/03/21 13:31:32;;;;;;;12.07;4.47;;;13.60;82.00;;;;;;9169808;19;20045;-65
2023/03/21 13:34:58;;;;;;;10.55;4.30;;;13.60;82.00;;;;;;9172044;19;20523;-64
2023/03/21 13:38:11;;;;;;;14.02;4.53;;;13.60;81.80;;;;;;9173086;19;20371;-65
2023/03/21 13:41:20;;;;;;;13.52;4.60;;;13.60;81.80;;;;;;9170071;19;20091;-65
2023/03/21 13:44:37;;;;;;;11.10;4.28;;;13.60;81.70;;;;;;9177659;19;20507;-65
2023/03/21 13:47:54;;;;;;;16.58;5.13;;;13.60;81.70;;;;;;9178266;19;20018;-65
2023/03/21 13:51:02;;;;;;;9.55;4.13;;;13.60;81.60;;;;;;9174689;19;20021;-65
2023/03/21 13:54:19;;;;;;;17.10;4.30;;;13.60;81.60;;;;;;9174342;19;20348;-65
2023/03/21 13:57:39;;;;;;;9.93;4.22;;;13.70;81.60;;;;;;9171778;19;20528;-65
2023/03/21 14:00:45;;;;;;;12.65;4.93;;;13.70;81.60;;;;;;9177819;19;20014;-65
2023/03/21 14:03:57;;;;;;;9.82;4.35;;;13.70;81.90;;;;;;9165332;19;20022;-66
2023/03/21 14:07:06;;;;;;;;;;;13.70;81.50;;;;;;9159456;19;20014;-65
2023/03/21 14:10:21;;;;;;;10.70;4.50;;;13.70;82.10;;;;;;9158364;19;19926;-65
2023/03/21 14:13:28;;;;;;;9.68;4.25;;;13.70;81.50;;;;;;9169350;19;20006;-65
2023/03/21 14:16:35;;;;;;;12.77;4.07;;;13.70;81.40;;;;;;9167221;19;20010;-68
2023/03/21 14:19:43;;;;;;;18.65;4.70;;;13.70;81.40;;;;;;9163809;19;20026;-65
2023/03/21 14:22:49;;;;;;;14.60;4.38;;;13.80;81.50;;;;;;9159770;19;20050;-66
2023/03/21 14:25:55;;;;;;;10.70;4.95;;;13.80;81.30;;;;;;9158809;19;20434;-66
2023/03/21 14:28:59;;;;;;;14.27;4.38;;;13.80;81.30;;;;;;9156582;19;20014;-67
2023/03/21 14:32:06;;;;;;;14.88;3.90;;;13.80;81.30;;;;;;9172501;19;20014;-67
2023/03/21 14:35:13;;;;;;;15.32;4.57;;;13.80;81.30;;;;;;9174245;19;20025;-67
2023/03/21 14:38:21;;;;;;;15.07;4.00;;;13.90;81.30;;;;;;9175778;19;20135;-66
2023/03/21 14:41:27;;;;;;;14.57;4.88;;;13.90;81.20;;;;;;9175798;19;20032;-66
2023/03/21 14:44:38;;;;;;;16.10;4.65;;;13.90;81.20;;;;;;9175612;19;20019;-67
2023/03/21 14:48:00;;;;;;;14.75;4.35;;;14.00;81.20;;;;;;9173929;19;20405;-67
2023/03/21 14:51:12;;;;;;;12.93;4.40;;;14.00;81.10;;;;;;9172465;19;20014;-67
2023/03/21 14:54:18;;;;;;;14.77;5.35;;;14.10;81.00;;;;;;9165493;19;20025;-67
2023/03/21 14:57:27;;;;;;;13.50;5.07;;;14.10;81.00;;;;;;9161677;19;20026;-67
2023/03/21 15:00:34;;;;;;;9.73;3.85;;;14.10;80.90;;;;;;9166994;19;20010;-67
2023/03/21 15:03:41;;;;;;;11.68;4.32;;;14.20;80.80;;;;;;9168046;19;20014;-67
2023/03/21 15:07:00;;;;;;;16.90;6.03;;;14.30;80.80;;;;;;9167278;19;20015;-67
2023/03/21 15:10:09;;;;;;;15.57;3.90;;;14.30;80.60;;;;;;9162196;19;20014;-67
2023/03/21 15:13:20;;;;;;;12.82;4.47;;;14.30;80.60;;;;;;9167900;19;20084;-67
2023/03/21 15:16:26;;;;;;;10.18;4.43;;;14.40;80.50;;;;;;9166564;19;20026;-67
2023/03/21 15:19:34;;;;;;;12.50;3.95;;;14.40;80.40;;;;;;9168321;19;20029;-66
2023/03/21 15:22:45;;;;;;;9.25;3.85;;;14.50;80.40;;;;;;9172071;19;20018;-66
2023/03/21 15:25:49;;;;;;;13.45;4.20;;;14.50;80.90;;;;;;9173318;19;20018;-67
2023/03/21 15:28:58;;;;;;;14.55;4.40;;;14.50;80.20;;;;;;9174869;19;20476;-66
2023/03/21 15:32:05;;;;;;;9.43;3.90;;;14.50;80.10;;;;;;9175834;19;20018;-67
2023/03/21 15:35:17;;;;;;;9.23;4.50;;;14.60;80.00;;;;;;9175885;19;20010;-67
2023/03/21 15:38:31;;;;;;;10.70;3.75;;;14.60;79.80;;;;;;9172084;19;20019;-66
2023/03/21 15:41:36;;;;;;;7.90;3.55;;;14.70;79.60;;;;;;9174264;19;20476;-67
2023/03/21 15:44:48;;;;;;;;;;;14.70;79.70;;;;;;9173393;19;20363;-66
2023/03/21 15:48:00;;;;;;;14.65;4.40;;;14.70;79.50;;;;;;9174819;19;19919;-66
2023/03/21 15:51:06;;;;;;;12.65;3.72;;;14.80;79.50;;;;;;9172614;19;20358;-67
2023/03/21 15:54:19;;;;;;;13.32;3.03;;;14.80;79.40;;;;;;9174704;19;20025;-67
2023/03/21 15:57:24;;;;;;;8.80;3.38;;;14.80;79.10;;;;;;9170374;19;20600;-66
2023/03/21 16:00:39;;;;;;;7.22;3.08;;;14.80;78.90;;;;;;9180031;19;20003;-65
2023/03/21 16:03:46;;;;;;;9.45;3.60;;;14.80;78.70;;;;;;9178353;19;20566;-65
2023/03/21 16:06:57;;;;;;;10.63;3.88;;;14.80;78.60;;;;;;9179241;19;20021;-66
2023/03/21 16:10:05;;;;;;;11.50;3.67;;;14.80;78.40;;;;;;9176095;19;20420;-66
2023/03/21 16:13:13;;;;;;;13.23;4.43;;;14.80;78.20;;;;;;9177715;19;20014;-66
2023/03/21 16:16:19;;;;;;;10.50;3.50;;;14.80;78.20;;;;;;9167495;19;20020;-66
2023/03/21 16:19:28;;;;;;;10.60;3.75;;;14.70;78.00;;;;;;9173522;19;20726;-67